createdAt,value
2023-05-05T00:01:48.114Z,69.79
2023-05-05T00:04:17.698Z,70.11
2023-05-05T00:06:45.383Z,70.02
2023-05-05T00:09:13.263Z,69.92
2023-05-05T00:11:40.797Z,69.91
2023-05-05T00:14:08.421Z,69.45
2023-05-05T00:16:36.043Z,69.53
2023-05-05T00:19:05.026Z,70.33
2023-05-05T00:21:32.557Z,70.72
2023-05-05T00:24:00.156Z,70.84
2023-05-05T00:26:27.789Z,70.70
2023-05-05T00:28:55.440Z,71.58
2023-05-05T00:31:23.750Z,72.12
2023-05-05T00:33:51.444Z,71.13
2023-05-05T00:36:22.790Z,71.30
2023-05-05T00:38:50.349Z,71.51
2023-05-05T00:41:17.985Z,70.61
2023-05-05T00:43:45.567Z,69.43
2023-05-05T00:46:20.180Z,70.40
2023-05-05T00:48:47.740Z,69.77
2023-05-05T00:51:16.942Z,69.64
2023-05-05T00:53:46.200Z,69.63
2023-05-05T00:56:14.362Z,69.77
2023-05-05T00:58:42.966Z,70.04
2023-05-05T01:01:12.010Z,70.07
2023-05-05T01:03:41.163Z,70.21
2023-05-05T01:06:16.293Z,71.40
2023-05-05T01:08:55.086Z,71.96
2023-05-05T01:11:27.969Z,72.38
2023-05-05T01:14:09.084Z,72.51
2023-05-05T01:16:41.362Z,72.44
2023-05-05T01:19:18.417Z,73.85
2023-05-05T01:21:49.745Z,76.01
2023-05-05T01:24:45.176Z,76.62
2023-05-05T01:27:28.242Z,76.58
2023-05-05T01:30:04.744Z,77.43
2023-05-05T01:32:36.966Z,78.13
2023-05-05T01:35:10.000Z,78.48
2023-05-05T01:37:42.057Z,79.06
2023-05-05T01:40:11.867Z,79.50
2023-05-05T01:42:43.460Z,79.03
2023-05-05T01:45:12.982Z,78.70
2023-05-05T01:47:43.254Z,78.97
2023-05-05T01:50:12.150Z,79.49
2023-05-05T01:52:41.116Z,78.99
2023-05-05T01:55:09.516Z,79.85
2023-05-05T01:57:37.937Z,80.65
2023-05-05T02:00:07.591Z,81.62
2023-05-05T02:02:36.803Z,82.34
2023-05-05T02:05:06.815Z,82.84
2023-05-05T02:07:34.822Z,83.13
2023-05-05T02:10:03.550Z,83.22
2023-05-05T02:12:31.772Z,83.59
2023-05-05T02:15:01.044Z,83.76
2023-05-05T02:17:29.072Z,83.64
2023-05-05T02:19:57.031Z,83.90
2023-05-05T02:22:26.040Z,83.38
2023-05-05T02:24:53.742Z,83.29
2023-05-05T02:27:22.992Z,83.44
2023-05-05T02:29:53.974Z,83.14
2023-05-05T02:32:24.876Z,84.19
2023-05-05T02:34:53.149Z,84.52
2023-05-05T02:37:23.067Z,84.47
2023-05-05T02:39:58.760Z,85.13
2023-05-05T02:42:29.272Z,85.25
2023-05-05T02:44:59.639Z,85.39
2023-05-05T02:47:30.379Z,84.58
2023-05-05T02:49:57.956Z,84.70
2023-05-05T02:52:25.611Z,83.97
2023-05-05T02:54:54.568Z,83.21
2023-05-05T02:57:28.792Z,83.11
2023-05-05T03:00:00.421Z,83.92
2023-05-05T03:02:29.435Z,83.45
2023-05-05T03:05:01.523Z,83.00
2023-05-05T03:07:32.145Z,83.39
2023-05-05T03:10:06.488Z,83.93
2023-05-05T03:12:38.786Z,83.81
2023-05-05T03:15:09.200Z,84.25
2023-05-05T03:17:37.458Z,84.57
2023-05-05T03:20:06.848Z,84.71
2023-05-05T03:22:36.757Z,85.74
2023-05-05T03:25:06.399Z,85.84
2023-05-05T03:27:33.997Z,86.00
2023-05-05T03:30:01.573Z,86.67
2023-05-05T03:32:30.834Z,87.09
2023-05-05T03:34:58.421Z,86.86
2023-05-05T03:37:25.993Z,87.62
2023-05-05T03:39:53.582Z,88.42
2023-05-05T03:42:22.504Z,88.30
2023-05-05T03:44:50.074Z,88.76
2023-05-05T03:47:17.620Z,89.35
2023-05-05T03:49:45.208Z,88.69
2023-05-05T03:52:14.509Z,88.29
2023-05-05T03:54:43.110Z,88.49
2023-05-05T03:57:10.687Z,88.39
2023-05-05T03:59:39.613Z,87.95
2023-05-05T04:02:07.256Z,87.98
2023-05-05T04:04:34.941Z,88.44
2023-05-05T04:07:02.662Z,88.36
2023-05-05T04:09:30.363Z,87.43
2023-05-05T04:11:58.061Z,87.34
2023-05-05T04:14:25.881Z,87.72
2023-05-05T04:16:54.788Z,87.46
2023-05-05T04:19:22.328Z,87.63
2023-05-05T04:21:51.061Z,87.55
2023-05-05T04:24:22.969Z,87.57
2023-05-05T04:26:50.784Z,87.72
2023-05-05T04:29:18.396Z,88.03
2023-05-05T04:31:46.347Z,87.66
2023-05-05T04:34:15.381Z,87.83
2023-05-05T04:36:42.925Z,87.38
2023-05-05T04:39:10.559Z,87.51
2023-05-05T04:41:38.136Z,87.23
2023-05-05T04:44:06.073Z,87.54
2023-05-05T04:46:34.827Z,87.98
2023-05-05T04:49:04.913Z,88.13
2023-05-05T04:51:33.842Z,88.95
2023-05-05T04:54:01.452Z,89.03
2023-05-05T04:56:31.860Z,88.79
2023-05-05T04:58:59.427Z,89.46
2023-05-05T05:01:27.058Z,89.96
2023-05-05T05:03:54.737Z,89.60
2023-05-05T05:06:22.329Z,88.85
2023-05-05T05:08:51.949Z,88.77
2023-05-05T05:11:19.567Z,88.89
2023-05-05T05:13:47.257Z,88.19
2023-05-05T05:16:15.036Z,89.39
2023-05-05T05:18:42.746Z,89.29
2023-05-05T05:21:10.369Z,89.41
2023-05-05T05:23:37.932Z,89.13
2023-05-05T05:26:07.184Z,89.57
2023-05-05T05:28:34.738Z,90.01
2023-05-05T05:31:02.349Z,90.47
2023-05-05T05:33:29.945Z,90.55
2023-05-05T05:35:57.490Z,90.47
2023-05-05T05:38:25.096Z,89.66
2023-05-05T05:40:54.339Z,89.92
2023-05-05T05:43:23.273Z,89.56
2023-05-05T05:45:51.968Z,90.31
2023-05-05T05:48:20.002Z,89.24
2023-05-05T05:50:47.535Z,88.71
2023-05-05T05:53:15.130Z,89.27
2023-05-05T05:55:42.640Z,88.71
2023-05-05T05:58:10.238Z,88.78
2023-05-05T06:00:39.183Z,88.13
2023-05-05T06:03:07.497Z,88.36
2023-05-05T06:05:35.297Z,87.42
2023-05-05T06:08:02.915Z,86.61
2023-05-05T06:10:30.685Z,87.39
2023-05-05T06:12:58.442Z,87.00
2023-05-05T06:15:26.318Z,87.11
2023-05-05T06:17:55.248Z,87.54
2023-05-05T06:20:22.851Z,87.52
2023-05-05T06:22:50.424Z,87.50
2023-05-05T06:25:18.279Z,88.05
2023-05-05T06:27:45.901Z,87.02
2023-05-05T06:30:14.645Z,87.64
2023-05-05T06:32:42.524Z,85.84
2023-05-05T06:35:12.226Z,86.65
2023-05-05T06:37:39.874Z,85.32
2023-05-05T06:40:10.369Z,86.01
2023-05-05T06:42:38.317Z,84.54
2023-05-05T06:45:06.647Z,83.59
2023-05-05T06:47:34.316Z,84.39
2023-05-05T06:50:02.047Z,83.35
2023-05-05T06:52:31.013Z,83.15
2023-05-05T06:54:58.559Z,82.59
2023-05-05T06:57:26.144Z,82.26
2023-05-05T06:59:54.156Z,81.67
2023-05-05T07:02:22.516Z,83.24
2023-05-05T07:04:51.115Z,82.50
2023-05-05T07:07:18.766Z,81.72
2023-05-05T07:09:47.666Z,79.94
2023-05-05T07:12:15.313Z,80.54
2023-05-05T07:14:43.157Z,80.57
2023-05-05T07:17:11.421Z,80.37
2023-05-05T07:19:39.118Z,80.15
2023-05-05T07:22:06.706Z,80.46
2023-05-05T07:24:34.336Z,79.27
2023-05-05T07:27:03.285Z,79.81
2023-05-05T07:29:31.467Z,79.35
2023-05-05T07:31:59.051Z,78.95
2023-05-05T07:34:27.546Z,79.81
2023-05-05T07:36:56.326Z,78.79
2023-05-05T07:39:23.898Z,79.43
2023-05-05T07:41:51.532Z,79.70
2023-05-05T07:44:20.551Z,78.84
2023-05-05T07:46:48.239Z,78.98
2023-05-05T07:49:15.989Z,78.40
2023-05-05T07:51:43.620Z,78.11
2023-05-05T07:54:11.206Z,77.37
2023-05-05T07:56:38.921Z,77.22
2023-05-05T07:59:06.592Z,77.87
2023-05-05T08:01:35.561Z,78.77
2023-05-05T08:04:03.279Z,77.69
2023-05-05T08:06:31.835Z,76.40
2023-05-05T08:09:01.086Z,76.84
2023-05-05T08:11:29.627Z,76.93
2023-05-05T08:13:57.329Z,76.45
2023-05-05T08:16:24.977Z,75.91
2023-05-05T08:18:54.201Z,75.51
2023-05-05T08:21:21.814Z,74.44
2023-05-05T08:23:49.398Z,74.97
2023-05-05T08:26:16.961Z,74.51
2023-05-05T08:28:44.596Z,73.11
2023-05-05T08:31:12.196Z,73.00
2023-05-05T08:33:39.836Z,72.41
2023-05-05T08:36:09.198Z,71.89
2023-05-05T08:38:37.232Z,71.35
2023-05-05T08:41:04.835Z,70.30
2023-05-05T08:43:32.718Z,68.62
2023-05-05T08:46:00.708Z,68.97
2023-05-05T08:48:29.231Z,69.29
2023-05-05T08:51:00.818Z,69.63
2023-05-05T08:53:40.055Z,69.48
2023-05-05T08:56:08.755Z,65.20
2023-05-05T08:58:37.756Z,64.52
2023-05-05T09:01:07.298Z,64.24
2023-05-05T09:03:35.622Z,64.03
2023-05-05T09:06:03.461Z,60.86
2023-05-05T09:08:32.663Z,60.72
2023-05-05T09:11:01.683Z,62.08
2023-05-05T09:13:30.918Z,62.54
2023-05-05T09:15:58.491Z,61.44
2023-05-05T09:18:26.359Z,60.56
2023-05-05T09:20:53.986Z,60.51
2023-05-05T09:23:22.171Z,59.71
2023-05-05T09:26:04.143Z,59.89
2023-05-05T09:28:32.125Z,59.61
2023-05-05T09:31:13.529Z,59.21
2023-05-05T09:33:41.152Z,59.68
2023-05-05T09:36:09.130Z,57.38
2023-05-05T09:38:37.276Z,58.86
2023-05-05T09:41:06.528Z,57.58
2023-05-05T09:43:51.733Z,56.19
2023-05-05T09:46:19.663Z,55.70
2023-05-05T09:48:47.335Z,55.24
2023-05-05T09:51:14.995Z,52.34
2023-05-05T09:53:43.906Z,52.57
2023-05-05T09:56:13.139Z,52.23
2023-05-05T09:58:41.711Z,52.61
2023-05-05T10:01:23.330Z,53.28
2023-05-05T10:03:52.037Z,53.69
2023-05-05T10:06:19.655Z,54.91
2023-05-05T10:09:01.816Z,54.03
2023-05-05T10:11:30.885Z,55.94
2023-05-05T10:13:58.924Z,55.02
2023-05-05T10:16:29.070Z,55.02
2023-05-05T10:18:57.769Z,54.84
2023-05-05T10:21:26.422Z,53.44
2023-05-05T10:23:58.942Z,54.33
2023-05-05T10:26:27.787Z,54.63
2023-05-05T10:28:57.460Z,54.03
2023-05-05T10:31:28.456Z,54.08
2023-05-05T10:34:01.645Z,53.51
2023-05-05T10:36:30.401Z,54.21
2023-05-05T10:38:58.630Z,54.53
2023-05-05T10:41:26.962Z,56.03
2023-05-05T10:43:58.259Z,57.06
2023-05-05T10:46:26.644Z,57.04
2023-05-05T10:49:00.457Z,57.18
2023-05-05T10:51:40.029Z,58.54
2023-05-05T10:54:12.525Z,57.22
2023-05-05T10:56:41.874Z,56.98
2023-05-05T10:59:44.144Z,57.27
2023-05-05T11:02:23.502Z,57.17
2023-05-05T11:05:08.476Z,56.55
2023-05-05T11:07:36.226Z,58.16
2023-05-05T11:10:05.070Z,58.17
2023-05-05T11:12:36.055Z,57.81
2023-05-05T11:15:40.432Z,58.41
2023-05-05T11:18:08.625Z,57.58
2023-05-05T11:21:09.113Z,56.31
2023-05-05T11:23:37.111Z,55.61
2023-05-05T11:26:04.797Z,55.55
2023-05-05T11:28:32.709Z,54.74
2023-05-05T11:31:20.885Z,53.83
2023-05-05T11:33:48.682Z,52.92
2023-05-05T11:36:17.109Z,52.93
2023-05-05T11:39:09.468Z,52.31
2023-05-05T11:41:47.645Z,53.13
2023-05-05T11:44:16.544Z,51.19
2023-05-05T11:47:17.668Z,51.46
2023-05-05T11:49:46.699Z,52.05
2023-05-05T11:52:15.799Z,51.49
2023-05-05T11:54:47.622Z,49.68
2023-05-05T11:57:15.656Z,50.04
2023-05-05T11:59:52.333Z,50.11
2023-05-05T12:02:20.496Z,49.61
2023-05-05T12:04:50.057Z,49.17
2023-05-05T12:07:17.980Z,49.83
2023-05-05T12:09:46.594Z,47.43
2023-05-05T12:12:14.641Z,49.27
2023-05-05T12:14:51.674Z,48.66
2023-05-05T12:17:20.798Z,48.59
2023-05-05T12:19:51.720Z,51.67
2023-05-05T12:22:20.938Z,50.16
2023-05-05T12:24:55.934Z,50.55
2023-05-05T12:27:24.292Z,51.48
2023-05-05T12:29:52.337Z,51.12
2023-05-05T12:32:21.183Z,49.16
2023-05-05T12:34:53.860Z,49.90
2023-05-05T12:37:22.109Z,50.24
2023-05-05T12:39:50.329Z,47.23
2023-05-05T12:42:18.472Z,48.02
2023-05-05T12:44:46.771Z,49.07
2023-05-05T12:47:15.074Z,50.04
2023-05-05T12:49:46.713Z,49.33
2023-05-05T12:52:16.323Z,49.67
2023-05-05T12:55:05.487Z,49.45
2023-05-05T12:57:33.190Z,49.81
2023-05-05T13:00:13.583Z,47.74
2023-05-05T13:02:41.294Z,48.77
2023-05-05T13:05:09.853Z,48.48
2023-05-05T13:07:50.703Z,45.77
2023-05-05T13:10:18.480Z,47.42
2023-05-05T13:12:46.153Z,45.86
2023-05-05T13:15:14.380Z,46.90
2023-05-05T13:17:42.086Z,47.46
2023-05-05T13:20:11.093Z,46.15
2023-05-05T13:22:40.103Z,46.61
2023-05-05T13:25:08.321Z,46.32
2023-05-05T13:27:37.760Z,46.89
2023-05-05T13:30:06.369Z,47.70
2023-05-05T13:32:34.044Z,47.64
2023-05-05T13:35:01.637Z,47.59
2023-05-05T13:37:29.444Z,47.41
2023-05-05T13:39:59.377Z,48.56
2023-05-05T13:42:27.163Z,47.51
2023-05-05T13:44:54.762Z,48.36
2023-05-05T13:47:22.568Z,48.58
2023-05-05T13:49:50.455Z,48.23
2023-05-05T13:52:18.147Z,47.97
2023-05-05T13:54:45.785Z,50.26
2023-05-05T13:57:14.909Z,50.04
2023-05-05T13:59:42.568Z,49.61
2023-05-05T14:02:10.224Z,49.85
2023-05-05T14:04:37.866Z,49.40
2023-05-05T14:07:05.407Z,50.19
2023-05-05T14:09:33.005Z,50.14
2023-05-05T14:12:00.546Z,50.36
2023-05-05T14:14:29.497Z,50.64
2023-05-05T14:16:57.185Z,51.52
2023-05-05T14:19:24.888Z,52.28
2023-05-05T14:21:52.537Z,52.56
2023-05-05T14:24:20.291Z,53.29
2023-05-05T14:26:47.891Z,53.93
2023-05-05T14:29:15.493Z,54.50
2023-05-05T14:31:44.487Z,53.55
2023-05-05T14:34:12.087Z,53.86
2023-05-05T14:36:39.749Z,54.78
2023-05-05T14:39:07.392Z,55.69
2023-05-05T14:41:35.210Z,55.91
2023-05-05T14:44:02.843Z,56.98
2023-05-05T14:46:31.171Z,57.88
2023-05-05T14:49:00.382Z,59.59
2023-05-05T14:51:28.025Z,62.12
2023-05-05T14:53:55.621Z,64.82
2023-05-05T14:56:24.326Z,68.50
2023-05-05T14:58:51.840Z,72.09
2023-05-05T15:01:20.662Z,70.65
2023-05-05T15:03:48.372Z,71.55
2023-05-05T15:06:17.521Z,72.76
2023-05-05T15:08:45.085Z,72.46
2023-05-05T15:11:13.728Z,72.19
2023-05-05T15:13:41.664Z,71.25
2023-05-05T15:16:09.386Z,69.17
2023-05-05T15:18:37.399Z,69.35
2023-05-05T15:21:05.411Z,69.54
2023-05-05T15:23:34.678Z,67.66
2023-05-05T15:26:07.799Z,68.82
2023-05-05T15:28:35.909Z,70.03
2023-05-05T15:31:03.664Z,72.41
2023-05-05T15:33:31.971Z,73.17
2023-05-05T15:35:59.549Z,72.41
2023-05-05T15:38:28.949Z,71.38
2023-05-05T15:40:58.021Z,71.53
2023-05-05T15:43:26.026Z,71.87
2023-05-05T15:45:54.855Z,71.37
2023-05-05T15:48:22.454Z,71.89
2023-05-05T15:50:50.186Z,73.29
2023-05-05T15:53:17.729Z,74.48
2023-05-05T15:55:45.347Z,75.43
2023-05-05T15:58:14.290Z,74.48
2023-05-05T16:00:42.019Z,75.34
2023-05-05T16:03:09.684Z,75.23
2023-05-05T16:05:37.699Z,73.56
2023-05-05T16:08:10.336Z,74.18
2023-05-05T16:10:38.260Z,74.30
2023-05-05T16:13:05.997Z,74.88
2023-05-05T16:15:35.389Z,76.06
2023-05-05T16:18:03.017Z,77.64
2023-05-05T16:20:30.731Z,76.71
2023-05-05T16:22:58.413Z,77.34
2023-05-05T16:25:26.051Z,77.92
2023-05-05T16:27:56.560Z,79.09
2023-05-05T16:30:24.152Z,78.65
2023-05-05T16:32:54.326Z,80.29
2023-05-05T16:35:22.817Z,80.45
2023-05-05T16:37:50.435Z,79.96
2023-05-05T16:40:18.059Z,79.99
2023-05-05T16:42:45.614Z,79.81
2023-05-05T16:45:13.158Z,79.64
2023-05-05T16:47:40.823Z,79.69
2023-05-05T16:50:10.604Z,79.22
2023-05-05T16:52:38.561Z,79.23
2023-05-05T16:55:08.125Z,80.01
2023-05-05T16:57:36.648Z,80.45
2023-05-05T17:00:04.776Z,80.01
2023-05-05T17:02:32.433Z,80.33
2023-05-05T17:05:00.091Z,79.66
2023-05-05T17:07:29.130Z,80.22
2023-05-05T17:09:56.766Z,79.50
2023-05-05T17:12:24.447Z,79.34
2023-05-05T17:14:52.290Z,79.77
2023-05-05T17:17:19.987Z,79.68
2023-05-05T17:19:47.637Z,79.62
2023-05-05T17:22:15.198Z,79.34
2023-05-05T17:24:44.119Z,79.62
2023-05-05T17:27:12.640Z,78.07
2023-05-05T17:29:41.218Z,75.77
2023-05-05T17:32:09.390Z,76.06
2023-05-05T17:34:37.105Z,76.64
2023-05-05T17:37:04.790Z,78.19
2023-05-05T17:39:32.337Z,77.95
2023-05-05T17:42:01.311Z,75.78
2023-05-05T17:44:28.869Z,76.47
2023-05-05T17:46:56.412Z,74.62
2023-05-05T17:49:25.234Z,74.29
2023-05-05T17:51:52.867Z,75.26
2023-05-05T17:54:20.973Z,75.63
2023-05-05T17:56:48.505Z,77.19
2023-05-05T17:59:17.440Z,77.50
2023-05-05T18:01:45.058Z,78.88
2023-05-05T18:04:12.675Z,80.49
2023-05-05T18:06:40.246Z,81.74
2023-05-05T18:09:09.209Z,81.68
2023-05-05T18:11:38.798Z,80.92
2023-05-05T18:14:06.301Z,80.00
2023-05-05T18:16:35.270Z,79.43
2023-05-05T18:19:02.864Z,79.30
2023-05-05T18:21:30.428Z,79.29
2023-05-05T18:24:07.579Z,79.33
2023-05-05T18:26:39.639Z,79.44
2023-05-05T18:29:07.536Z,79.75
2023-05-05T18:31:36.464Z,79.71
2023-05-05T18:34:04.082Z,80.56
2023-05-05T18:36:31.754Z,80.35
2023-05-05T18:38:59.353Z,80.78
2023-05-05T18:41:26.935Z,81.34
2023-05-05T18:43:54.525Z,81.44
2023-05-05T18:46:22.418Z,82.08
2023-05-05T18:48:51.346Z,83.19
2023-05-05T18:51:18.846Z,84.43
2023-05-05T18:53:46.458Z,84.54
2023-05-05T18:56:14.028Z,84.90
2023-05-05T18:58:41.619Z,85.52
2023-05-05T19:01:09.269Z,86.08
2023-05-05T19:03:36.964Z,86.42
2023-05-05T19:06:07.879Z,87.27
2023-05-05T19:08:35.399Z,87.42
2023-05-05T19:11:03.557Z,89.17
2023-05-05T19:13:31.434Z,88.83
2023-05-05T19:15:59.008Z,88.40
2023-05-05T19:18:26.715Z,88.01
2023-05-05T19:20:54.491Z,88.17
2023-05-05T19:23:23.487Z,88.84
2023-05-05T19:25:51.948Z,88.32
2023-05-05T19:28:19.723Z,88.08
2023-05-05T19:30:48.590Z,88.81
2023-05-05T19:33:16.390Z,88.76
2023-05-05T19:35:44.196Z,88.96
2023-05-05T19:38:11.965Z,89.64
2023-05-05T19:40:41.109Z,89.71
2023-05-05T19:43:09.089Z,89.48
2023-05-05T19:45:36.682Z,89.94
2023-05-05T19:48:04.409Z,89.22
2023-05-05T19:50:32.025Z,89.52
2023-05-05T19:52:59.701Z,89.16
2023-05-05T19:55:27.225Z,89.54
2023-05-05T19:57:56.177Z,90.15
2023-05-05T20:00:24.064Z,88.99
2023-05-05T20:02:51.822Z,89.12
2023-05-05T20:05:19.717Z,89.05
2023-05-05T20:07:47.300Z,88.90
2023-05-05T20:10:15.795Z,88.93
2023-05-05T20:12:47.932Z,88.44
2023-05-05T20:15:19.776Z,87.68
2023-05-05T20:17:47.686Z,88.31
2023-05-05T20:20:18.469Z,88.21
2023-05-05T20:22:46.221Z,87.74
2023-05-05T20:25:15.082Z,88.27
2023-05-05T20:27:46.159Z,88.21
2023-05-05T20:30:14.458Z,88.84
2023-05-05T20:32:43.461Z,89.13
2023-05-05T20:35:12.738Z,88.58
2023-05-05T20:37:40.376Z,87.25
2023-05-05T20:40:09.509Z,88.20
2023-05-05T20:42:37.482Z,87.85
2023-05-05T20:45:06.926Z,87.53
2023-05-05T20:47:35.105Z,86.86
2023-05-05T20:50:04.262Z,86.32
2023-05-05T20:52:31.828Z,86.95
2023-05-05T20:54:59.436Z,86.85
2023-05-05T20:57:27.011Z,87.94
2023-05-05T20:59:54.573Z,89.65
2023-05-05T21:02:22.216Z,88.96
2023-05-05T21:04:49.817Z,89.01
2023-05-05T21:07:18.761Z,89.47
2023-05-05T21:09:48.131Z,89.57
2023-05-05T21:12:15.692Z,90.25
2023-05-05T21:14:44.346Z,90.65
2023-05-05T21:17:11.869Z,91.51
2023-05-05T21:19:39.693Z,92.05
2023-05-05T21:22:07.221Z,92.14
2023-05-05T21:24:36.280Z,92.55
2023-05-05T21:27:03.992Z,92.97
2023-05-05T21:29:34.254Z,93.16
2023-05-05T21:32:01.988Z,92.79
2023-05-05T21:34:29.607Z,93.10
2023-05-05T21:36:58.106Z,93.35
2023-05-05T21:39:25.716Z,94.29
2023-05-05T21:41:54.723Z,94.33
2023-05-05T21:44:22.256Z,94.42
2023-05-05T21:46:49.896Z,94.65
2023-05-05T21:49:18.070Z,95.99
2023-05-05T21:51:46.638Z,95.44
2023-05-05T21:54:14.310Z,96.08
2023-05-05T21:56:41.851Z,96.04
2023-05-05T21:59:11.002Z,95.39
2023-05-05T22:01:38.639Z,96.05
2023-05-05T22:04:07.404Z,95.92
2023-05-05T22:06:35.193Z,96.61
2023-05-05T22:09:02.783Z,96.32
2023-05-05T22:11:30.366Z,96.28
2023-05-05T22:13:57.962Z,97.15
2023-05-05T22:16:26.977Z,97.33
2023-05-05T22:18:54.531Z,97.57
2023-05-05T22:21:22.177Z,98.17
2023-05-05T22:23:49.740Z,97.47
2023-05-05T22:26:17.356Z,98.39
2023-05-05T22:28:44.841Z,98.74
2023-05-05T22:31:12.612Z,98.61
2023-05-05T22:33:41.523Z,98.29
2023-05-05T22:36:10.048Z,98.62
2023-05-05T22:38:37.657Z,98.96
2023-05-05T22:41:07.183Z,99.81
2023-05-05T22:43:34.741Z,100.00
2023-05-05T22:46:02.288Z,99.92
2023-05-05T22:48:29.906Z,99.80
2023-05-05T22:50:59.739Z,100.00
2023-05-05T22:53:27.372Z,100.00
2023-05-05T22:55:55.024Z,100.00
2023-05-05T22:58:22.930Z,100.00
2023-05-05T23:00:50.499Z,100.00
2023-05-05T23:03:18.143Z,100.00
2023-05-05T23:05:45.896Z,100.00
2023-05-05T23:08:14.808Z,100.00
2023-05-05T23:10:42.328Z,100.00
2023-05-05T23:13:10.053Z,100.00
2023-05-05T23:15:37.676Z,100.00
2023-05-05T23:18:05.509Z,100.00
2023-05-05T23:20:33.206Z,100.00
2023-05-05T23:23:01.183Z,100.00
2023-05-05T23:25:30.361Z,100.00
2023-05-05T23:27:58.049Z,100.00
2023-05-05T23:30:25.780Z,100.00
2023-05-05T23:32:54.311Z,100.00
2023-05-05T23:35:22.039Z,100.00
2023-05-05T23:37:49.859Z,100.00
2023-05-05T23:40:17.856Z,100.00
2023-05-05T23:42:46.891Z,100.00
2023-05-05T23:45:14.516Z,100.00
2023-05-05T23:47:42.316Z,100.00
2023-05-05T23:50:10.774Z,100.00
2023-05-05T23:52:38.419Z,100.00
2023-05-05T23:55:07.460Z,100.00
2023-05-05T23:57:36.412Z,100.00
